createdAt,value
2023-05-03T00:03:33.164Z,4.9
2023-05-03T00:08:33.176Z,4.9
2023-05-03T00:13:33.161Z,4.7
2023-05-03T00:18:33.156Z,4.6
2023-05-03T00:23:33.159Z,4.5
2023-05-03T00:28:33.193Z,4.4
2023-05-03T00:33:33.184Z,4.4
2023-05-03T00:38:33.200Z,4.4
2023-05-03T00:43:33.178Z,4.3
2023-05-03T00:48:33.191Z,4.2
2023-05-03T00:53:33.185Z,4.1
2023-05-03T00:58:33.201Z,4.1
2023-05-03T01:03:33.274Z,4.0
2023-05-03T01:08:33.204Z,3.9
2023-05-03T01:13:33.202Z,3.9
2023-05-03T01:18:33.197Z,3.8
2023-05-03T01:23:33.202Z,3.8
2023-05-03T01:28:33.226Z,3.7
2023-05-03T01:33:33.197Z,3.6
2023-05-03T01:38:33.228Z,3.6
2023-05-03T01:43:33.219Z,3.5
2023-05-03T01:48:33.226Z,3.5
2023-05-03T01:53:33.223Z,3.5
2023-05-03T01:58:33.253Z,3.5
2023-05-03T02:03:33.230Z,3.4
2023-05-03T02:08:33.258Z,3.3
2023-05-03T02:13:33.230Z,3.3
2023-05-03T02:18:33.242Z,3.2
2023-05-03T02:23:33.239Z,3.2
2023-05-03T02:28:33.257Z,3.2
2023-05-03T02:33:33.244Z,3.2
2023-05-03T02:38:33.272Z,3.2
2023-05-03T02:43:33.250Z,3.2
2023-05-03T02:48:33.273Z,3.1
2023-05-03T02:53:33.248Z,3.0
2023-05-03T02:58:33.281Z,3.1
2023-05-03T03:03:33.349Z,2.9
2023-05-03T03:08:33.292Z,2.9
2023-05-03T03:13:33.258Z,2.9
2023-05-03T03:18:33.264Z,2.8
2023-05-03T03:23:33.269Z,2.8
2023-05-03T03:28:33.293Z,2.6
2023-05-03T03:33:33.271Z,2.5
2023-05-03T03:38:33.301Z,2.5
2023-05-03T03:43:33.285Z,2.5
2023-05-03T03:48:33.285Z,2.5
2023-05-03T03:53:33.271Z,2.5
2023-05-03T03:58:33.311Z,2.5
2023-05-03T04:03:33.350Z,2.5
2023-05-03T04:08:33.334Z,2.5
2023-05-03T04:18:33.303Z,2.5
2023-05-03T04:23:33.310Z,2.5
2023-05-03T04:28:33.341Z,2.6
2023-05-03T04:33:33.301Z,2.6
2023-05-03T04:43:33.422Z,2.6
2023-05-03T04:48:33.312Z,2.7
2023-05-03T04:53:33.314Z,2.8
2023-05-03T04:58:33.342Z,2.8
2023-05-03T05:03:33.410Z,3.0
2023-05-03T05:08:33.334Z,3.1
2023-05-03T05:13:33.355Z,3.2
2023-05-03T05:18:33.369Z,3.2
2023-05-03T05:23:33.331Z,3.3
2023-05-03T05:28:33.357Z,3.4
2023-05-03T05:33:33.383Z,3.5
2023-05-03T05:38:33.343Z,3.7
2023-05-03T05:43:33.360Z,3.8
2023-05-03T05:48:33.348Z,4.0
2023-05-03T05:53:33.350Z,4.1
2023-05-03T05:58:33.377Z,4.3
2023-05-03T06:03:33.357Z,4.5
2023-05-03T06:08:33.356Z,4.7
2023-05-03T06:13:33.436Z,4.8
2023-05-03T06:18:33.379Z,4.9
2023-05-03T06:23:33.407Z,5.2
2023-05-03T06:28:33.415Z,5.5
2023-05-03T06:33:33.390Z,5.7
2023-05-03T06:38:33.373Z,5.8
2023-05-03T06:43:33.416Z,6.1
2023-05-03T06:48:33.472Z,6.2
2023-05-03T06:53:33.395Z,6.4
2023-05-03T06:58:33.410Z,6.6
2023-05-03T07:03:33.502Z,6.8
2023-05-03T07:08:33.399Z,7.0
2023-05-03T07:13:33.414Z,7.3
2023-05-03T07:18:33.400Z,7.5
2023-05-03T07:23:33.423Z,7.7
2023-05-03T07:28:33.422Z,8.1
2023-05-03T07:33:33.570Z,8.2
2023-05-03T07:38:33.407Z,8.7
2023-05-03T07:43:33.456Z,8.9
2023-05-03T07:48:33.407Z,9.0
2023-05-03T07:53:33.410Z,9.2
2023-05-03T07:58:40.009Z,9.6
2023-05-03T08:03:33.712Z,9.7
2023-05-03T08:08:33.420Z,9.7
2023-05-03T08:13:33.458Z,10.1
2023-05-03T08:18:33.428Z,10.3
2023-05-03T08:23:33.439Z,10.4
2023-05-03T08:28:33.493Z,11.0
2023-05-03T08:33:33.440Z,11.4
2023-05-03T08:38:33.449Z,11.3
2023-05-03T08:43:33.488Z,11.4
2023-05-03T08:48:33.451Z,12.2
2023-05-03T08:53:33.453Z,11.7
2023-05-03T08:58:33.465Z,12.4
2023-05-03T09:03:33.527Z,12.4
2023-05-03T09:08:33.457Z,13.0
2023-05-03T09:13:33.503Z,13.0
2023-05-03T09:18:33.459Z,14.1
2023-05-03T09:23:33.462Z,13.4
2023-05-03T09:28:33.483Z,13.8
2023-05-03T09:38:33.475Z,13.6
2023-05-03T09:43:33.506Z,12.6
2023-05-03T09:48:33.483Z,12.9
2023-05-03T09:53:33.493Z,12.9
2023-05-03T09:58:33.499Z,12.8
2023-05-03T10:03:33.520Z,12.3
2023-05-03T10:08:33.510Z,12.4
2023-05-03T10:13:33.579Z,12.1
2023-05-03T10:18:33.519Z,12.2
2023-05-03T10:23:33.512Z,12.4
2023-05-03T10:28:33.532Z,12.6
2023-05-03T10:33:33.513Z,12.0
2023-05-03T10:38:33.536Z,12.0
2023-05-03T10:43:33.528Z,12.6
2023-05-03T10:48:33.527Z,12.6
2023-05-03T10:53:33.516Z,12.4
2023-05-03T10:58:33.531Z,12.4
2023-05-03T11:03:33.523Z,12.8
2023-05-03T11:08:33.527Z,13.0
2023-05-03T11:13:33.609Z,12.8
2023-05-03T11:18:33.530Z,13.3
2023-05-03T11:23:33.530Z,13.9
2023-05-03T11:28:33.564Z,13.6
2023-05-03T11:33:33.533Z,13.4
2023-05-03T11:38:33.542Z,13.7
2023-05-03T11:43:33.571Z,13.1
2023-05-03T11:48:33.673Z,13.4
2023-05-03T11:53:33.570Z,13.2
2023-05-03T11:58:33.574Z,13.5
2023-05-03T12:03:34.355Z,13.9
2023-05-03T12:08:36.447Z,14.1
2023-05-03T12:13:34.576Z,14.2
2023-05-03T12:18:34.021Z,13.9
2023-05-03T12:28:33.675Z,14.1
2023-05-03T12:33:33.909Z,14.1
2023-05-03T12:38:37.029Z,14.1
2023-05-03T12:43:33.716Z,14.6
2023-05-03T12:48:33.970Z,14.1
2023-05-03T12:53:35.049Z,14.3
2023-05-03T12:58:56.657Z,14.7
2023-05-03T13:03:34.597Z,14.1
2023-05-03T13:08:35.335Z,14.6
2023-05-03T13:13:33.637Z,15.0
2023-05-03T13:18:33.616Z,15.1
2023-05-03T13:23:33.627Z,14.6
2023-05-03T13:28:33.642Z,14.9
2023-05-03T13:33:33.740Z,15.2
2023-05-03T13:38:33.626Z,14.8
2023-05-03T13:43:33.646Z,14.6
2023-05-03T13:48:33.649Z,14.6
2023-05-03T13:53:33.629Z,15.1
2023-05-03T13:58:33.658Z,15.3
2023-05-03T14:03:33.951Z,15.6
2023-05-03T14:08:33.658Z,15.5
2023-05-03T14:13:43.599Z,15.5
2023-05-03T14:18:33.757Z,15.4
2023-05-03T14:23:33.654Z,15.7
2023-05-03T14:28:33.676Z,15.4
2023-05-03T14:33:33.681Z,15.6
2023-05-03T14:38:33.663Z,15.5
2023-05-03T14:43:33.688Z,15.6
2023-05-03T14:48:33.678Z,15.6
2023-05-03T14:53:33.694Z,15.6
2023-05-03T14:58:33.690Z,15.4
2023-05-03T15:03:33.729Z,15.3
2023-05-03T15:08:33.689Z,15.5
2023-05-03T15:13:33.809Z,15.6
2023-05-03T15:18:33.690Z,15.7
2023-05-03T15:23:33.695Z,15.6
2023-05-03T15:28:33.724Z,15.6
2023-05-03T15:33:33.703Z,15.3
2023-05-03T15:38:33.720Z,15.5
2023-05-03T15:43:33.776Z,15.5
2023-05-03T15:48:33.726Z,15.5
2023-05-03T15:53:33.724Z,15.2
2023-05-03T15:58:33.736Z,15.5
2023-05-03T16:03:33.716Z,15.1
2023-05-03T16:08:33.735Z,15.0
2023-05-03T16:13:33.738Z,15.1
2023-05-03T16:18:33.741Z,14.9
2023-05-03T16:23:33.729Z,14.8
2023-05-03T16:28:33.755Z,15.0
2023-05-03T16:33:33.754Z,14.9
2023-05-03T16:38:33.735Z,14.9
2023-05-03T16:48:33.759Z,14.8
2023-05-03T16:53:33.751Z,14.7
2023-05-03T16:58:33.778Z,14.6
2023-05-03T17:03:33.847Z,14.5
2023-05-03T17:08:33.761Z,14.5
2023-05-03T17:13:33.785Z,14.5
2023-05-03T17:18:33.779Z,14.4
2023-05-03T17:23:33.772Z,14.4
2023-05-03T17:28:33.837Z,14.3
2023-05-03T17:33:33.778Z,14.2
2023-05-03T17:38:33.773Z,14.1
2023-05-03T17:43:33.784Z,13.9
2023-05-03T17:48:33.815Z,13.8
2023-05-03T17:53:33.783Z,13.7
2023-05-03T17:58:33.805Z,13.6
2023-05-03T18:03:33.930Z,13.4
2023-05-03T18:08:33.804Z,13.3
2023-05-03T18:13:33.818Z,13.1
2023-05-03T18:18:33.834Z,13.0
2023-05-03T18:23:33.793Z,12.9
2023-05-03T18:28:33.820Z,12.8
2023-05-03T18:33:33.864Z,12.6
2023-05-03T18:38:33.817Z,12.5
2023-05-03T18:43:36.591Z,12.3
2023-05-03T18:48:33.839Z,12.1
2023-05-03T18:53:33.817Z,12.0
2023-05-03T18:58:33.849Z,11.9
2023-05-03T19:03:33.889Z,11.8
2023-05-03T19:08:33.826Z,11.7
2023-05-03T19:13:33.833Z,11.6
2023-05-03T19:18:33.866Z,11.4
2023-05-03T19:23:33.851Z,11.3
2023-05-03T19:28:33.867Z,11.2
2023-05-03T19:33:33.862Z,11.0
2023-05-03T19:38:33.855Z,10.9
2023-05-03T19:43:33.857Z,10.8
2023-05-03T19:48:33.879Z,10.6
2023-05-03T19:53:33.860Z,10.5
2023-05-03T19:58:33.881Z,10.4
2023-05-03T20:03:33.979Z,10.2
2023-05-03T20:08:33.873Z,10.1
2023-05-03T20:13:33.874Z,10.0
2023-05-03T20:18:33.924Z,9.8
2023-05-03T20:23:33.902Z,9.8
2023-05-03T20:28:33.890Z,9.6
2023-05-03T20:33:33.887Z,9.6
2023-05-03T20:38:33.907Z,9.5
2023-05-03T20:43:33.888Z,9.5
2023-05-03T20:48:33.968Z,9.4
2023-05-03T20:53:33.888Z,9.2
2023-05-03T20:58:33.908Z,9.1
2023-05-03T21:03:34.002Z,9.1
2023-05-03T21:08:33.909Z,9.0
2023-05-03T21:13:33.901Z,8.9
2023-05-03T21:18:33.928Z,8.9
2023-05-03T21:23:33.916Z,8.8
2023-05-03T21:28:33.940Z,8.7
2023-05-03T21:33:33.917Z,8.6
2023-05-03T21:38:33.913Z,8.6
2023-05-03T21:43:33.919Z,8.5
2023-05-03T21:48:33.948Z,8.4
2023-05-03T21:53:33.922Z,8.3
2023-05-03T21:58:33.952Z,8.2
2023-05-03T22:03:33.985Z,8.2
2023-05-03T22:08:33.937Z,8.1
2023-05-03T22:13:33.957Z,8.0
2023-05-03T22:18:33.961Z,8.0
2023-05-03T22:23:33.946Z,7.9
2023-05-03T22:28:34.039Z,7.8
2023-05-03T22:33:33.970Z,7.8
2023-05-03T22:38:33.971Z,7.7
2023-05-03T22:43:33.960Z,7.6
2023-05-03T22:48:34.071Z,7.6
2023-05-03T22:53:33.967Z,7.5
2023-05-03T22:58:33.977Z,7.5
2023-05-03T23:03:34.026Z,7.4
2023-05-03T23:08:33.979Z,7.4
2023-05-03T23:13:33.988Z,7.3
2023-05-03T23:18:33.999Z,7.3
2023-05-03T23:23:33.985Z,7.2
2023-05-03T23:28:33.998Z,7.2
2023-05-03T23:33:33.989Z,7.2
2023-05-03T23:38:34.032Z,7.2
2023-05-03T23:43:33.989Z,7.1
2023-05-03T23:48:34.038Z,7.0
2023-05-03T23:53:34.001Z,6.9
2023-05-03T23:58:34.014Z,6.9
